sensor_id;sensor_type;location;lat;lon;timestamp;pressure;altitude;pressure_sealevel;temperature;humidity
5138;BME280;53959;53.626;11.410;2023-05-20T00:01:35;102212.28;;;10.22;60.00
5138;BME280;53959;53.626;11.410;2023-05-20T00:04:01;102207.00;;;10.24;60.44
5138;BME280;53959;53.626;11.410;2023-05-20T00:06:26;102204.34;;;10.16;60.80
5138;BME280;53959;53.626;11.410;2023-05-20T00:08:51;102202.56;;;10.20;60.61
5138;BME280;53959;53.626;11.410;2023-05-20T00:11:17;102199.03;;;10.12;61.14
5138;BME280;53959;53.626;11.410;2023-05-20T00:13:42;102198.16;;;10.13;61.08
5138;BME280;53959;53.626;11.410;2023-05-20T00:16:07;102203.44;;;10.11;61.58
5138;BME280;53959;53.626;11.410;2023-05-20T00:18:33;102206.09;;;10.07;61.60
5138;BME280;53959;53.626;11.410;2023-05-20T00:20:58;102203.44;;;10.10;61.67
5138;BME280;53959;53.626;11.410;2023-05-20T00:23:23;102201.66;;;10.03;61.65
5138;BME280;53959;53.626;11.410;2023-05-20T00:25:49;102200.78;;;9.97;61.94
5138;BME280;53959;53.626;11.410;2023-05-20T00:28:14;102205.22;;;10.02;62.05
5138;BME280;53959;53.626;11.410;2023-05-20T00:30:40;102200.78;;;9.97;62.31
5138;BME280;53959;53.626;11.410;2023-05-20T00:33:06;102200.78;;;9.97;62.32
5138;BME280;53959;53.626;11.410;2023-05-20T00:35:31;102204.31;;;9.96;62.29
5138;BME280;53959;53.626;11.410;2023-05-20T00:37:57;102204.31;;;9.90;62.56
5138;BME280;53959;53.626;11.410;2023-05-20T00:40:22;102198.09;;;9.85;62.88
5138;BME280;53959;53.626;11.410;2023-05-20T00:42:49;102195.47;;;9.91;62.69
5138;BME280;53959;53.626;11.410;2023-05-20T00:45:14;102190.16;;;9.94;62.86
5138;BME280;53959;53.626;11.410;2023-05-20T00:47:41;102196.34;;;9.89;62.89
5138;BME280;53959;53.626;11.410;2023-05-20T00:50:07;102199.00;;;9.83;63.14
5138;BME280;53959;53.626;11.410;2023-05-20T00:52:34;102193.69;;;9.84;63.33
5138;BME280;53959;53.626;11.410;2023-05-20T00:55:00;102197.25;;;9.89;63.48
5138;BME280;53959;53.626;11.410;2023-05-20T00:57:26;102191.03;;;9.84;63.56
5138;BME280;53959;53.626;11.410;2023-05-20T00:59:51;102200.75;;;9.79;63.71
5138;BME280;53959;53.626;11.410;2023-05-20T01:02:17;102198.13;;;9.82;63.63
5138;BME280;53959;53.626;11.410;2023-05-20T01:04:43;102205.16;;;9.76;63.83
5138;BME280;53959;53.626;11.410;2023-05-20T01:07:13;102202.50;;;9.71;63.78
5138;BME280;53959;53.626;11.410;2023-05-20T01:09:39;102200.72;;;9.73;63.68
5138;BME280;53959;53.626;11.410;2023-05-20T01:12:12;102198.97;;;9.63;64.28
5138;BME280;53959;53.626;11.410;2023-05-20T01:14:48;102193.63;;;9.66;64.38
5138;BME280;53959;53.626;11.410;2023-05-20T01:17:15;102196.28;;;9.61;64.93
5138;BME280;53959;53.626;11.410;2023-05-20T01:19:46;102195.41;;;9.64;64.59
5138;BME280;53959;53.626;11.410;2023-05-20T01:22:13;102187.44;;;9.53;65.07
5138;BME280;53959;53.626;11.410;2023-05-20T01:24:44;102190.06;;;9.55;65.49
5138;BME280;53959;53.626;11.410;2023-05-20T01:27:11;102186.56;;;9.56;65.09
5138;BME280;53959;53.626;11.410;2023-05-20T01:29:40;102185.63;;;9.47;65.57
5138;BME280;53959;53.626;11.410;2023-05-20T01:32:10;102190.06;;;9.47;65.69
5138;BME280;53959;53.626;11.410;2023-05-20T01:34:39;102183.00;;;9.55;65.64
5138;BME280;53959;53.626;11.410;2023-05-20T01:37:07;102184.75;;;9.47;65.89
5138;BME280;53959;53.626;11.410;2023-05-20T01:39:35;102180.34;;;9.44;65.98
5138;BME280;53959;53.626;11.410;2023-05-20T01:42:03;102175.88;;;9.43;66.31
5138;BME280;53959;53.626;11.410;2023-05-20T01:44:29;102178.56;;;9.40;66.52
5138;BME280;53959;53.626;11.410;2023-05-20T01:46:55;102180.28;;;9.34;66.45
5138;BME280;53959;53.626;11.410;2023-05-20T01:49:20;102184.75;;;9.41;66.80
5138;BME280;53959;53.626;11.410;2023-05-20T01:51:45;102178.53;;;9.36;67.03
5138;BME280;53959;53.626;11.410;2023-05-20T01:54:11;102180.28;;;9.29;67.37
5138;BME280;53959;53.626;11.410;2023-05-20T01:56:36;102182.03;;;9.26;67.22
5138;BME280;53959;53.626;11.410;2023-05-20T01:59:01;102181.16;;;9.28;67.70
5138;BME280;53959;53.626;11.410;2023-05-20T02:01:27;102182.94;;;9.32;67.46
5138;BME280;53959;53.626;11.410;2023-05-20T02:03:52;102178.47;;;9.23;67.67
5138;BME280;53959;53.626;11.410;2023-05-20T02:06:17;102174.97;;;9.31;67.58
5138;BME280;53959;53.626;11.410;2023-05-20T02:08:43;102178.47;;;9.16;67.89
5138;BME280;53959;53.626;11.410;2023-05-20T02:11:08;102173.16;;;9.20;68.20
5138;BME280;53959;53.626;11.410;2023-05-20T02:13:35;102174.91;;;9.17;68.20
5138;BME280;53959;53.626;11.410;2023-05-20T02:16:00;102169.59;;;9.12;68.49
5138;BME280;53959;53.626;11.410;2023-05-20T02:18:26;102172.28;;;9.20;68.50
5138;BME280;53959;53.626;11.410;2023-05-20T02:20:51;102167.84;;;9.11;68.45
5138;BME280;53959;53.626;11.410;2023-05-20T02:23:17;102174.88;;;9.08;68.77
5138;BME280;53959;53.626;11.410;2023-05-20T02:25:42;102180.19;;;9.09;68.63
5138;BME280;53959;53.626;11.410;2023-05-20T02:28:08;102177.56;;;9.11;68.59
5138;BME280;53959;53.626;11.410;2023-05-20T02:30:38;102172.25;;;9.12;68.53
5138;BME280;53959;53.626;11.410;2023-05-20T02:33:04;102169.53;;;8.98;69.08
5138;BME280;53959;53.626;11.410;2023-05-20T02:35:30;102159.88;;;9.17;68.60
5138;BME280;53959;53.626;11.410;2023-05-20T02:37:55;102161.63;;;9.05;68.83
5138;BME280;53959;53.626;11.410;2023-05-20T02:40:20;102165.16;;;9.08;69.23
5138;BME280;53959;53.626;11.410;2023-05-20T02:42:47;102162.50;;;9.00;69.31
5138;BME280;53959;53.626;11.410;2023-05-20T02:45:12;102161.59;;;8.95;69.24
5138;BME280;53959;53.626;11.410;2023-05-20T02:47:37;102165.97;;;8.89;69.66
5138;BME280;53959;53.626;11.410;2023-05-20T02:50:04;102165.13;;;8.96;69.60
5138;BME280;53959;53.626;11.410;2023-05-20T02:52:29;102163.34;;;8.96;69.41
5138;BME280;53959;53.626;11.410;2023-05-20T02:54:55;102168.59;;;8.84;69.73
5138;BME280;53959;53.626;11.410;2023-05-20T02:57:21;102167.72;;;8.85;69.82
5138;BME280;53959;53.626;11.410;2023-05-20T02:59:47;102155.34;;;8.87;70.09
5138;BME280;53959;53.626;11.410;2023-05-20T03:02:12;102152.69;;;8.87;70.35
5138;BME280;53959;53.626;11.410;2023-05-20T03:04:38;102152.69;;;8.81;70.16
5138;BME280;53959;53.626;11.410;2023-05-20T03:07:06;102150.91;;;8.80;70.33
5138;BME280;53959;53.626;11.410;2023-05-20T03:09:34;102160.59;;;8.77;70.54
5138;BME280;53959;53.626;11.410;2023-05-20T03:11:59;102165.00;;;8.73;70.77
5138;BME280;53959;53.626;11.410;2023-05-20T03:14:24;102172.91;;;8.71;70.92
5138;BME280;53959;53.626;11.410;2023-05-20T03:16:50;102167.59;;;8.62;71.44
5138;BME280;53959;53.626;11.410;2023-05-20T03:19:17;102172.03;;;8.71;71.44
5138;BME280;53959;53.626;11.410;2023-05-20T03:21:42;102179.09;;;8.67;71.26
5138;BME280;53959;53.626;11.410;2023-05-20T03:24:08;102171.16;;;8.72;71.23
5138;BME280;53959;53.626;11.410;2023-05-20T03:26:34;102179.06;;;8.64;71.25
5138;BME280;53959;53.626;11.410;2023-05-20T03:29:04;102173.75;;;8.64;71.38
5138;BME280;53959;53.626;11.410;2023-05-20T03:31:29;102177.28;;;8.65;71.64
5138;BME280;53959;53.626;11.410;2023-05-20T03:33:55;102173.75;;;8.60;71.79
5138;BME280;53959;53.626;11.410;2023-05-20T03:36:21;102173.75;;;8.63;71.62
5138;BME280;53959;53.626;11.410;2023-05-20T03:38:46;102177.31;;;8.68;71.67
5138;BME280;53959;53.626;11.410;2023-05-20T03:41:12;102173.81;;;8.72;72.00
5138;BME280;53959;53.626;11.410;2023-05-20T03:43:38;102173.81;;;8.72;71.88
5138;BME280;53959;53.626;11.410;2023-05-20T03:46:04;102181.72;;;8.67;71.91
5138;BME280;53959;53.626;11.410;2023-05-20T03:48:29;102184.34;;;8.63;72.35
5138;BME280;53959;53.626;11.410;2023-05-20T03:50:55;102181.72;;;8.63;72.63
5138;BME280;53959;53.626;11.410;2023-05-20T03:53:20;102180.84;;;8.67;72.26
5138;BME280;53959;53.626;11.410;2023-05-20T03:55:45;102180.88;;;8.70;72.38
5138;BME280;53959;53.626;11.410;2023-05-20T03:58:12;102187.97;;;8.74;72.71
5138;BME280;53959;53.626;11.410;2023-05-20T04:00:40;102187.06;;;8.75;72.57
5138;BME280;53959;53.626;11.410;2023-05-20T04:03:05;102182.63;;;8.72;72.48
5138;BME280;53959;53.626;11.410;2023-05-20T04:05:31;102178.19;;;8.68;72.74
5138;BME280;53959;53.626;11.410;2023-05-20T04:07:57;102187.03;;;8.66;72.80
5138;BME280;53959;53.626;11.410;2023-05-20T04:10:23;102178.19;;;8.67;72.97
5138;BME280;53959;53.626;11.410;2023-05-20T04:12:49;102180.00;;;8.69;73.31
5138;BME280;53959;53.626;11.410;2023-05-20T04:15:15;102189.69;;;8.67;73.27
5138;BME280;53959;53.626;11.410;2023-05-20T04:17:48;102186.13;;;8.64;73.59
5138;BME280;53959;53.626;11.410;2023-05-20T04:20:14;102187.97;;;8.74;73.52
5138;BME280;53959;53.626;11.410;2023-05-20T04:22:40;102180.94;;;8.84;72.94
5138;BME280;53959;53.626;11.410;2023-05-20T04:25:05;102188.00;;;8.83;73.07
5138;BME280;53959;53.626;11.410;2023-05-20T04:27:32;102184.50;;;8.84;73.29
5138;BME280;53959;53.626;11.410;2023-05-20T04:30:03;102191.59;;;8.94;73.17
5138;BME280;53959;53.626;11.410;2023-05-20T04:32:32;102178.41;;;8.99;73.08
5138;BME280;53959;53.626;11.410;2023-05-20T04:34:58;102186.38;;;9.10;73.01
5138;BME280;53959;53.626;11.410;2023-05-20T04:37:26;102182.78;;;8.92;73.67
5138;BME280;53959;53.626;11.410;2023-05-20T04:39:52;102185.47;;;9.00;73.47
5138;BME280;53959;53.626;11.410;2023-05-20T04:42:18;102175.84;;;9.22;72.85
5138;BME280;53959;53.626;11.410;2023-05-20T04:44:46;102184.66;;;9.15;72.71
5138;BME280;53959;53.626;11.410;2023-05-20T04:47:13;102189.13;;;9.36;72.45
5138;BME280;53959;53.626;11.410;2023-05-20T04:49:39;102196.19;;;9.35;72.31
5138;BME280;53959;53.626;11.410;2023-05-20T04:52:05;102207.66;;;9.23;73.20
5138;BME280;53959;53.626;11.410;2023-05-20T04:54:31;102198.84;;;9.26;73.56
5138;BME280;53959;53.626;11.410;2023-05-20T04:56:57;102206.75;;;9.24;74.19
5138;BME280;53959;53.626;11.410;2023-05-20T04:59:24;102206.78;;;9.31;73.42
5138;BME280;53959;53.626;11.410;2023-05-20T05:01:49;102206.84;;;9.51;73.24
5138;BME280;53959;53.626;11.410;2023-05-20T05:04:15;102198.03;;;9.50;73.23
5138;BME280;53959;53.626;11.410;2023-05-20T05:06:41;102204.19;;;9.43;73.33
5138;BME280;53959;53.626;11.410;2023-05-20T05:09:07;102200.63;;;9.36;73.63
5138;BME280;53959;53.626;11.410;2023-05-20T05:11:33;102213.06;;;9.49;73.33
5138;BME280;53959;53.626;11.410;2023-05-20T05:13:59;102208.66;;;9.58;72.93
5138;BME280;53959;53.626;11.410;2023-05-20T05:16:25;102214.00;;;9.76;72.82
5138;BME280;53959;53.626;11.410;2023-05-20T05:18:51;102204.31;;;9.92;72.38
5138;BME280;53959;53.626;11.410;2023-05-20T05:21:16;102204.31;;;10.07;71.94
5138;BME280;53959;53.626;11.410;2023-05-20T05:23:43;102202.56;;;10.14;71.59
5138;BME280;53959;53.626;11.410;2023-05-20T05:26:09;102201.69;;;10.13;71.72
5138;BME280;53959;53.626;11.410;2023-05-20T05:28:34;102198.16;;;10.40;71.07
5138;BME280;53959;53.626;11.410;2023-05-20T05:31:00;102198.16;;;10.33;70.80
5138;BME280;53959;53.626;11.410;2023-05-20T05:33:26;102202.59;;;10.35;70.25
5138;BME280;53959;53.626;11.410;2023-05-20T05:35:52;102207.03;;;10.45;70.41
5138;BME280;53959;53.626;11.410;2023-05-20T05:38:18;102197.25;;;10.55;69.83
5138;BME280;53959;53.626;11.410;2023-05-20T05:40:43;102200.81;;;10.65;69.85
5138;BME280;53959;53.626;11.410;2023-05-20T05:43:09;102199.94;;;10.58;69.99
5138;BME280;53959;53.626;11.410;2023-05-20T05:45:35;102198.13;;;10.77;69.66
5138;BME280;53959;53.626;11.410;2023-05-20T05:48:00;102202.53;;;10.78;69.50
5138;BME280;53959;53.626;11.410;2023-05-20T05:50:26;102198.03;;;11.05;69.08
5138;BME280;53959;53.626;11.410;2023-05-20T05:52:51;102203.34;;;11.17;68.78
5138;BME280;53959;53.626;11.410;2023-05-20T05:55:17;102202.38;;;11.33;68.07
5138;BME280;53959;53.626;11.410;2023-05-20T05:57:43;102197.84;;;11.51;68.08
5138;BME280;53959;53.626;11.410;2023-05-20T06:00:10;102202.16;;;11.75;67.45
5138;BME280;53959;53.626;11.410;2023-05-20T06:02:45;102204.84;;;11.68;66.98
5138;BME280;53959;53.626;11.410;2023-05-20T06:05:14;102205.66;;;11.89;66.75
5138;BME280;53959;53.626;11.410;2023-05-20T06:07:39;102206.50;;;11.93;66.78
5138;BME280;53959;53.626;11.410;2023-05-20T06:10:05;102211.75;;;12.05;66.67
5138;BME280;53959;53.626;11.410;2023-05-20T06:12:31;102207.22;;;12.14;66.37
5138;BME280;53959;53.626;11.410;2023-05-20T06:14:56;102203.59;;;12.22;66.00
5138;BME280;53959;53.626;11.410;2023-05-20T06:17:22;102205.22;;;12.41;65.31
5138;BME280;53959;53.626;11.410;2023-05-20T06:19:47;102198.03;;;12.51;65.06
5138;BME280;53959;53.626;11.410;2023-05-20T06:22:13;102197.13;;;12.52;65.24
5138;BME280;53959;53.626;11.410;2023-05-20T06:24:38;102198.03;;;12.51;65.03
5138;BME280;53959;53.626;11.410;2023-05-20T06:27:05;102193.38;;;12.71;64.42
5138;BME280;53959;53.626;11.410;2023-05-20T06:29:30;102195.22;;;12.66;64.08
5138;BME280;53959;53.626;11.410;2023-05-20T06:31:55;102192.34;;;12.87;63.79
5138;BME280;53959;53.626;11.410;2023-05-20T06:34:21;102191.41;;;12.92;63.26
5138;BME280;53959;53.626;11.410;2023-05-20T06:36:47;102191.09;;;13.18;62.76
5138;BME280;53959;53.626;11.410;2023-05-20T06:39:13;102189.28;;;13.24;62.44
5138;BME280;53959;53.626;11.410;2023-05-20T06:41:41;102184.84;;;13.20;62.42
5138;BME280;53959;53.626;11.410;2023-05-20T06:44:08;102189.94;;;13.39;61.85
5138;BME280;53959;53.626;11.410;2023-05-20T06:46:57;102180.63;;;13.70;60.91
5138;BME280;53959;53.626;11.410;2023-05-20T06:49:22;102184.19;;;13.71;61.15
5138;BME280;53959;53.626;11.410;2023-05-20T06:51:49;102180.63;;;13.70;61.23
5138;BME280;53959;53.626;11.410;2023-05-20T06:54:15;102172.34;;;13.25;62.36
5138;BME280;53959;53.626;11.410;2023-05-20T06:56:41;102171.34;;;13.35;62.02
5138;BME280;53959;53.626;11.410;2023-05-20T06:59:06;102163.00;;;13.57;61.41
5138;BME280;53959;53.626;11.410;2023-05-20T07:01:33;102163.53;;;13.82;60.60
5138;BME280;53959;53.626;11.410;2023-05-20T07:03:59;102172.72;;;13.63;60.93
5138;BME280;53959;53.626;11.410;2023-05-20T07:06:25;102167.88;;;13.89;60.23
5138;BME280;53959;53.626;11.410;2023-05-20T07:08:50;102163.03;;;14.14;59.92
5138;BME280;53959;53.626;11.410;2023-05-20T07:11:16;102166.31;;;13.74;60.56
5138;BME280;53959;53.626;11.410;2023-05-20T07:13:43;102148.94;;;14.04;60.15
5138;BME280;53959;53.626;11.410;2023-05-20T07:16:08;102158.03;;;14.44;58.87
5138;BME280;53959;53.626;11.410;2023-05-20T07:18:36;102158.34;;;14.27;58.94
5138;BME280;53959;53.626;11.410;2023-05-20T07:21:01;102158.97;;;14.43;58.61
5138;BME280;53959;53.626;11.410;2023-05-20T07:23:37;102146.16;;;14.62;57.92
5138;BME280;53959;53.626;11.410;2023-05-20T07:26:03;102150.53;;;14.67;58.33
5138;BME280;53959;53.626;11.410;2023-05-20T07:28:28;102140.00;;;14.58;58.79
5138;BME280;53959;53.626;11.410;2023-05-20T07:30:54;102135.06;;;14.33;58.40
5138;BME280;53959;53.626;11.410;2023-05-20T07:33:24;102143.19;;;14.78;57.80
5138;BME280;53959;53.626;11.410;2023-05-20T07:35:49;102143.75;;;14.94;57.26
5138;BME280;53959;53.626;11.410;2023-05-20T07:38:16;102141.94;;;15.37;56.40
5138;BME280;53959;53.626;11.410;2023-05-20T07:40:43;102144.09;;;15.19;57.14
5138;BME280;53959;53.626;11.410;2023-05-20T07:43:09;102135.56;;;15.02;57.42
5138;BME280;53959;53.626;11.410;2023-05-20T07:45:36;102149.31;;;15.27;56.94
5138;BME280;53959;53.626;11.410;2023-05-20T07:48:02;102137.44;;;14.97;57.11
5138;BME280;53959;53.626;11.410;2023-05-20T07:50:28;102144.38;;;15.47;56.39
5138;BME280;53959;53.626;11.410;2023-05-20T07:52:53;102151.34;;;15.54;56.59
5138;BME280;53959;53.626;11.410;2023-05-20T07:55:19;102152.84;;;15.68;56.87
5138;BME280;53959;53.626;11.410;2023-05-20T07:57:44;102150.91;;;15.36;56.84
5138;BME280;53959;53.626;11.410;2023-05-20T08:00:10;102133.78;;;15.43;56.75
5138;BME280;53959;53.626;11.410;2023-05-20T08:02:42;102129.91;;;14.72;57.82
5138;BME280;53959;53.626;11.410;2023-05-20T08:05:08;102130.16;;;14.58;57.98
5138;BME280;53959;53.626;11.410;2023-05-20T08:07:34;102128.03;;;14.29;58.95
5138;BME280;53959;53.626;11.410;2023-05-20T08:09:59;102126.31;;;14.73;57.72
5138;BME280;53959;53.626;11.410;2023-05-20T08:12:26;102125.47;;;14.71;58.46
5138;BME280;53959;53.626;11.410;2023-05-20T08:14:52;102131.09;;;15.43;56.74
5138;BME280;53959;53.626;11.410;2023-05-20T08:17:18;102124.19;;;15.33;56.85
5138;BME280;53959;53.626;11.410;2023-05-20T08:19:43;102130.69;;;14.77;58.33
5138;BME280;53959;53.626;11.410;2023-05-20T08:22:12;102131.56;;;14.78;58.15
5138;BME280;53959;53.626;11.410;2023-05-20T08:24:37;102135.88;;;14.87;57.45
5138;BME280;53959;53.626;11.410;2023-05-20T08:27:03;102131.81;;;15.49;55.58
5138;BME280;53959;53.626;11.410;2023-05-20T08:29:30;102134.00;;;15.32;55.46
5138;BME280;53959;53.626;11.410;2023-05-20T08:31:56;102124.84;;;16.17;53.46
5138;BME280;53959;53.626;11.410;2023-05-20T08:34:23;102130.25;;;15.79;53.82
5138;BME280;53959;53.626;11.410;2023-05-20T08:36:49;102122.38;;;15.35;54.74
5138;BME280;53959;53.626;11.410;2023-05-20T08:39:15;102125.50;;;16.26;52.41
5138;BME280;53959;53.626;11.410;2023-05-20T08:41:40;102114.84;;;17.48;50.03
5138;BME280;53959;53.626;11.410;2023-05-20T08:44:06;102117.22;;;17.87;48.78
5138;BME280;53959;53.626;11.410;2023-05-20T08:46:35;102120.91;;;17.55;49.13
5138;BME280;53959;53.626;11.410;2023-05-20T08:49:01;102122.97;;;17.17;50.51
5138;BME280;53959;53.626;11.410;2023-05-20T08:51:26;102124.31;;;18.91;46.37
5138;BME280;53959;53.626;11.410;2023-05-20T08:53:53;102129.25;;;18.53;46.69
5138;BME280;53959;53.626;11.410;2023-05-20T08:56:19;102127.00;;;17.02;50.86
5138;BME280;53959;53.626;11.410;2023-05-20T08:58:46;102139.44;;;16.05;54.19
5138;BME280;53959;53.626;11.410;2023-05-20T09:01:12;102125.41;;;15.95;55.60
5138;BME280;53959;53.626;11.410;2023-05-20T09:03:38;102119.22;;;16.60;53.33
5138;BME280;53959;53.626;11.410;2023-05-20T09:06:07;102112.66;;;15.69;54.66
5138;BME280;53959;53.626;11.410;2023-05-20T09:08:33;102112.00;;;15.58;54.75
5138;BME280;53959;53.626;11.410;2023-05-20T09:10:59;102112.31;;;15.83;54.61
5138;BME280;53959;53.626;11.410;2023-05-20T09:13:26;102112.75;;;17.30;51.60
5138;BME280;53959;53.626;11.410;2023-05-20T09:15:51;102104.38;;;16.47;52.04
5138;BME280;53959;53.626;11.410;2023-05-20T09:18:17;102111.44;;;16.18;53.05
5138;BME280;53959;53.626;11.410;2023-05-20T09:20:45;102108.34;;;15.98;54.33
5138;BME280;53959;53.626;11.410;2023-05-20T09:23:11;102106.72;;;15.55;55.02
5138;BME280;53959;53.626;11.410;2023-05-20T09:25:37;102111.72;;;15.32;54.96
5138;BME280;53959;53.626;11.410;2023-05-20T09:28:06;102114.66;;;15.19;55.31
5138;BME280;53959;53.626;11.410;2023-05-20T09:30:32;102115.28;;;14.90;55.90
5138;BME280;53959;53.626;11.410;2023-05-20T09:32:59;102112.56;;;14.93;56.45
5138;BME280;53959;53.626;11.410;2023-05-20T09:35:26;102108.03;;;14.95;56.61
5138;BME280;53959;53.626;11.410;2023-05-20T09:37:56;102114.53;;;14.84;57.10
5138;BME280;53959;53.626;11.410;2023-05-20T09:40:23;102113.75;;;14.78;57.23
5138;BME280;53959;53.626;11.410;2023-05-20T09:43:02;102114.47;;;14.87;55.74
5138;BME280;53959;53.626;11.410;2023-05-20T09:45:27;102113.38;;;14.95;56.03
5138;BME280;53959;53.626;11.410;2023-05-20T09:47:54;102105.41;;;14.94;56.26
5138;BME280;53959;53.626;11.410;2023-05-20T09:50:21;102108.19;;;15.29;54.60
5138;BME280;53959;53.626;11.410;2023-05-20T09:52:48;102120.94;;;15.18;54.95
5138;BME280;53959;53.626;11.410;2023-05-20T09:55:15;102119.50;;;15.02;55.53
5138;BME280;53959;53.626;11.410;2023-05-20T09:57:42;102103.56;;;14.96;56.34
5138;BME280;53959;53.626;11.410;2023-05-20T10:00:08;102107.44;;;14.82;56.46
5138;BME280;53959;53.626;11.410;2023-05-20T10:02:42;102104.31;;;14.59;56.53
5138;BME280;53959;53.626;11.410;2023-05-20T10:05:13;102099.63;;;14.72;56.66
5138;BME280;53959;53.626;11.410;2023-05-20T10:16:02;102094.44;;;15.06;55.86
5138;BME280;53959;53.626;11.410;2023-05-20T10:21:40;102091.75;;;15.06;56.82
5138;BME280;53959;53.626;11.410;2023-05-20T10:24:06;102091.06;;;14.96;56.78
5138;BME280;53959;53.626;11.410;2023-05-20T10:26:39;102087.06;;;14.75;57.23
5138;BME280;53959;53.626;11.410;2023-05-20T10:29:16;102079.97;;;14.73;57.44
5138;BME280;53959;53.626;11.410;2023-05-20T10:31:49;102082.53;;;14.79;57.37
5138;BME280;53959;53.626;11.410;2023-05-20T10:34:19;102080.03;;;14.71;57.80
5138;BME280;53959;53.626;11.410;2023-05-20T10:37:05;102089.25;;;14.97;57.44
5138;BME280;53959;53.626;11.410;2023-05-20T10:39:31;102098.41;;;14.87;56.98
5138;BME280;53959;53.626;11.410;2023-05-20T10:42:06;102089.34;;;14.94;57.40
5138;BME280;53959;53.626;11.410;2023-05-20T10:44:58;102084.38;;;14.75;57.30
5138;BME280;53959;53.626;11.410;2023-05-20T10:47:24;102086.19;;;14.73;57.56
5138;BME280;53959;53.626;11.410;2023-05-20T10:49:49;102080.47;;;14.92;57.41
5138;BME280;53959;53.626;11.410;2023-05-20T10:52:18;102081.38;;;14.91;57.17
5138;BME280;53959;53.626;11.410;2023-05-20T10:54:58;102080.38;;;14.96;57.14
5138;BME280;53959;53.626;11.410;2023-05-20T10:57:27;102070.47;;;15.01;57.30
5138;BME280;53959;53.626;11.410;2023-05-20T10:59:54;102072.00;;;15.12;57.74
5138;BME280;53959;53.626;11.410;2023-05-20T11:02:20;102067.81;;;15.00;57.95
5138;BME280;53959;53.626;11.410;2023-05-20T11:04:57;102067.81;;;15.00;57.41
5138;BME280;53959;53.626;11.410;2023-05-20T11:07:27;102060.16;;;14.83;57.89
5138;BME280;53959;53.626;11.410;2023-05-20T11:10:02;102054.91;;;14.78;58.21
5138;BME280;53959;53.626;11.410;2023-05-20T11:12:32;102056.19;;;14.59;58.92
5138;BME280;53959;53.626;11.410;2023-05-20T11:14:57;102047.06;;;14.71;59.26
5138;BME280;53959;53.626;11.410;2023-05-20T11:17:22;102055.44;;;14.94;58.71
5138;BME280;53959;53.626;11.410;2023-05-20T11:19:48;102054.66;;;14.89;58.89
5138;BME280;53959;53.626;11.410;2023-05-20T11:22:13;102053.66;;;14.95;58.97
5138;BME280;53959;53.626;11.410;2023-05-20T11:24:38;102047.72;;;14.80;58.93
5138;BME280;53959;53.626;11.410;2023-05-20T11:27:05;102050.72;;;14.65;59.18
5138;BME280;53959;53.626;11.410;2023-05-20T11:29:30;102053.06;;;14.82;58.36
5138;BME280;53959;53.626;11.410;2023-05-20T11:31:59;102056.81;;;15.14;57.99
5138;BME280;53959;53.626;11.410;2023-05-20T11:34:24;102049.66;;;15.14;58.17
5138;BME280;53959;53.626;11.410;2023-05-20T11:36:56;102053.91;;;15.23;58.59
5138;BME280;53959;53.626;11.410;2023-05-20T11:39:23;102056.63;;;15.21;58.35
5138;BME280;53959;53.626;11.410;2023-05-20T11:41:49;102047.97;;;15.10;58.18
5138;BME280;53959;53.626;11.410;2023-05-20T11:44:14;102042.06;;;15.35;58.27
5138;BME280;53959;53.626;11.410;2023-05-20T11:46:41;102045.69;;;15.30;57.79
5138;BME280;53959;53.626;11.410;2023-05-20T11:49:07;102045.78;;;15.27;57.72
5138;BME280;53959;53.626;11.410;2023-05-20T11:51:33;102047.03;;;15.50;57.14
5138;BME280;53959;53.626;11.410;2023-05-20T11:54:00;102045.44;;;15.78;56.50
5138;BME280;53959;53.626;11.410;2023-05-20T11:56:31;102050.72;;;15.82;56.72
5138;BME280;53959;53.626;11.410;2023-05-20T11:59:00;102035.34;;;15.90;56.69
5138;BME280;53959;53.626;11.410;2023-05-20T12:01:28;102039.81;;;15.52;57.63
5138;BME280;53959;53.626;11.410;2023-05-20T12:03:53;102040.44;;;15.65;57.59
5138;BME280;53959;53.626;11.410;2023-05-20T12:06:19;102030.66;;;15.62;57.39
5138;BME280;53959;53.626;11.410;2023-05-20T12:08:45;102036.09;;;15.59;57.45
5138;BME280;53959;53.626;11.410;2023-05-20T12:11:11;102031.38;;;15.70;57.12
5138;BME280;53959;53.626;11.410;2023-05-20T12:13:37;102025.88;;;15.75;56.74
5138;BME280;53959;53.626;11.410;2023-05-20T12:16:02;102023.06;;;15.81;56.81
5138;BME280;53959;53.626;11.410;2023-05-20T12:18:30;102013.16;;;15.85;56.42
5138;BME280;53959;53.626;11.410;2023-05-20T12:20:57;102023.47;;;15.66;56.97
5138;BME280;53959;53.626;11.410;2023-05-20T12:23:22;102012.84;;;15.61;57.21
5138;BME280;53959;53.626;11.410;2023-05-20T12:25:47;102004.03;;;15.56;57.89
5138;BME280;53959;53.626;11.410;2023-05-20T12:28:14;102008.75;;;15.45;58.32
5138;BME280;53959;53.626;11.410;2023-05-20T12:30:40;102010.34;;;15.53;58.86
5138;BME280;53959;53.626;11.410;2023-05-20T12:33:06;102001.72;;;15.42;59.25
5138;BME280;53959;53.626;11.410;2023-05-20T12:35:39;102000.16;;;15.32;59.78
5138;BME280;53959;53.626;11.410;2023-05-20T12:38:05;102005.81;;;15.20;59.59
5138;BME280;53959;53.626;11.410;2023-05-20T12:40:31;102001.78;;;15.38;59.44
5138;BME280;53959;53.626;11.410;2023-05-20T12:42:57;101993.88;;;15.35;59.82
5138;BME280;53959;53.626;11.410;2023-05-20T12:45:23;101995.94;;;15.23;60.19
5138;BME280;53959;53.626;11.410;2023-05-20T12:47:48;101992.38;;;15.21;60.47
5138;BME280;53959;53.626;11.410;2023-05-20T12:50:14;101995.00;;;15.24;60.60
5138;BME280;53959;53.626;11.410;2023-05-20T12:52:39;102001.03;;;15.33;60.68
5138;BME280;53959;53.626;11.410;2023-05-20T12:55:05;101989.78;;;15.18;60.89
5138;BME280;53959;53.626;11.410;2023-05-20T12:57:38;101985.56;;;15.08;60.57
5138;BME280;53959;53.626;11.410;2023-05-20T13:00:04;101987.34;;;15.09;60.84
5138;BME280;53959;53.626;11.410;2023-05-20T13:02:30;101988.78;;;15.24;60.90